Time;durP1;ratioP1;P1;durP2;ratioP2;P2;SDS_P1;SDS_P2;PMS_P1;PMS_P2;Temp;Humidity;BMP_temperature;BMP_pressure;BME280_temperature;BME280_humidity;BME280_pressure;Samples;Min_cycle;Max_cycle;Signal;HPM_P1;HPM_P2
2022/10/15 00:02:52;;;;;;;27.15;14.75;;;11.60;99.90;;;;;;9193975;19;19915;-77
2022/10/15 00:05:55;;;;;;;29.17;14.93;;;11.10;99.90;;;;;;9194148;19;19948;-76
2022/10/15 00:09:02;;;;;;;26.48;15.02;;;11.60;99.90;;;;;;9194384;19;20296;-76
2022/10/15 00:12:07;;;;;;;26.27;13.45;;;11.80;99.90;;;;;;9193866;19;19922;-76
2022/10/15 00:15:12;;;;;;;30.98;15.18;;;11.10;99.90;;;;;;9192319;19;19990;-76
2022/10/15 00:18:16;;;;;;;31.25;15.13;;;11.10;99.90;;;;;;9193492;19;19921;-76
2022/10/15 00:21:21;;;;;;;29.25;15.23;;;11.40;99.90;;;;;;9196399;19;19926;-76
2022/10/15 00:24:28;;;;;;;25.10;13.93;;;11.40;99.90;;;;;;9193777;19;19986;-75
2022/10/15 00:27:32;;;;;;;30.15;15.35;;;10.70;99.90;;;;;;9192641;19;19918;-74
2022/10/15 00:30:36;;;;;;;28.60;14.55;;;11.00;99.90;;;;;;9193156;19;19994;-75
2022/10/15 00:33:41;;;;;;;32.10;15.45;;;11.80;99.90;;;;;;9193603;19;19910;-76
2022/10/15 00:36:45;;;;;;;27.40;14.32;;;11.10;99.90;;;;;;9190680;19;19986;-75
2022/10/15 00:39:51;;;;;;;29.73;15.40;;;11.00;99.90;;;;;;9192403;19;19952;-75
2022/10/15 00:42:56;;;;;;;29.90;14.85;;;11.00;99.90;;;;;;9190767;19;20347;-75
2022/10/15 00:46:00;;;;;;;25.88;13.60;;;11.00;99.90;;;;;;9192456;19;19931;-75
2022/10/15 00:49:16;;;;;;;29.88;15.02;;;11.10;99.90;;;;;;9195538;19;19914;-75
2022/10/15 00:52:22;;;;;;;29.50;15.48;;;11.90;99.90;;;;;;9192166;19;20325;-76
2022/10/15 00:55:31;;;;;;;29.10;16.30;;;11.20;99.90;;;;;;9189836;19;20288;-76
2022/10/15 00:58:37;;;;;;;27.15;14.57;;;11.10;99.90;;;;;;9191754;19;19922;-75
2022/10/15 01:01:41;;;;;;;25.67;15.25;;;11.70;99.90;;;;;;9191867;19;19911;-76
2022/10/15 01:04:45;;;;;;;27.15;14.77;;;11.50;99.90;;;;;;9191808;19;20298;-75
2022/10/15 01:07:49;;;;;;;32.08;15.23;;;11.10;99.90;;;;;;9191609;19;19915;-75
2022/10/15 01:11:05;;;;;;;28.90;15.10;;;11.60;99.90;;;;;;9191593;19;19914;-76
2022/10/15 01:14:22;;;;;;;31.75;15.23;;;11.00;99.90;;;;;;9191835;19;19974;-76
2022/10/15 01:17:33;;;;;;;31.67;15.82;;;10.70;99.90;;;;;;9188701;19;19935;-75
2022/10/15 01:20:53;;;;;;;31.60;15.38;;;11.00;99.90;;;;;;9195227;19;19923;-75
2022/10/15 01:24:34;;;;;;;29.45;15.38;;;11.50;99.90;;;;;;9191713;19;19911;-75
2022/10/15 01:27:44;;;;;;;30.88;16.58;;;10.80;99.90;;;;;;9191045;19;19999;-75
2022/10/15 01:30:58;;;;;;;26.75;13.70;;;11.00;99.90;;;;;;9191771;19;19931;-76
2022/10/15 01:34:05;;;;;;;28.05;14.20;;;11.20;99.90;;;;;;9190509;19;19918;-75
2022/10/15 01:37:13;;;;;;;31.55;16.90;;;11.40;99.90;;;;;;9190571;19;19949;-76
2022/10/15 01:40:22;;;;;;;26.75;15.18;;;11.70;99.90;;;;;;9190453;19;19915;-76
2022/10/15 01:43:31;;;;;;;27.58;14.98;;;11.30;99.90;;;;;;9190369;19;19918;-76
2022/10/15 01:46:42;;;;;;;31.58;16.42;;;11.30;99.90;;;;;;9189774;19;19928;-76
2022/10/15 01:49:49;;;;;;;32.17;14.70;;;11.40;99.90;;;;;;9195347;19;20372;-76
2022/10/15 01:52:54;;;;;;;;;;;11.20;99.90;;;;;;9191769;19;19926;-75
2022/10/15 01:56:01;;;;;;;26.58;15.02;;;10.70;99.90;;;;;;9194948;19;19919;-76
2022/10/15 01:59:07;;;;;;;28.33;14.90;;;10.80;99.90;;;;;;9197754;19;19977;-75
2022/10/15 02:02:13;;;;;;;34.60;16.35;;;11.90;99.90;;;;;;9198657;19;20004;-76
2022/10/15 02:05:22;;;;;;;29.60;15.55;;;11.40;99.90;;;;;;9198283;19;19918;-76
2022/10/15 02:08:35;;;;;;;34.92;17.38;;;11.00;99.90;;;;;;9198857;19;19923;-77
2022/10/15 02:11:52;;;;;;;31.17;17.17;;;10.80;99.90;;;;;;9197735;19;19917;-78
2022/10/15 02:15:02;;;;;;;32.08;17.33;;;10.80;99.90;;;;;;9197210;19;19997;-74
2022/10/15 02:18:16;;;;;;;35.53;19.23;;;11.50;99.90;;;;;;9199317;19;20389;-75
2022/10/15 02:21:27;;;;;;;34.17;17.10;;;11.00;99.90;;;;;;9197792;19;19911;-75
2022/10/15 02:24:37;;;;;;;35.60;18.58;;;11.30;99.90;;;;;;9197183;19;20259;-75
2022/10/15 02:27:42;;;;;;;31.38;16.83;;;11.20;99.90;;;;;;9197004;19;19923;-75
2022/10/15 02:30:49;;;;;;;31.67;16.80;;;11.20;99.90;;;;;;9196886;19;19982;-75
2022/10/15 02:33:59;;;;;;;31.55;17.60;;;11.40;99.90;;;;;;9197205;19;19923;-75
2022/10/15 02:37:06;;;;;;;34.65;18.95;;;10.60;99.90;;;;;;9194722;19;19991;-75
2022/10/15 02:40:10;;;;;;;;;;;11.20;99.90;;;;;;9199076;19;19910;-76
2022/10/15 02:43:16;;;;;;;33.97;17.48;;;10.80;99.90;;;;;;9196673;19;19921;-75
2022/10/15 02:46:22;;;;;;;33.60;16.88;;;11.60;99.90;;;;;;9197135;19;19919;-75
2022/10/15 02:49:28;;;;;;;34.28;19.08;;;11.70;99.90;;;;;;9196757;19;19910;-75
2022/10/15 02:52:32;;;;;;;;;;;11.10;99.90;;;;;;9198246;19;19918;-75
2022/10/15 02:55:36;;;;;;;;;;;11.10;99.90;;;;;;9195238;19;19922;-76
2022/10/15 02:58:40;;;;;;;35.42;16.20;;;;;;;;;;9196855;19;20333;-75
2022/10/15 03:01:44;;;;;;;30.73;15.82;;;11.10;99.90;;;;;;9195799;19;19942;-76
2022/10/15 03:04:50;;;;;;;32.55;16.20;;;10.30;99.90;;;;;;9196373;19;20408;-76
2022/10/15 03:07:54;;;;;;;32.88;17.27;;;10.70;99.90;;;;;;9194162;19;20345;-76
2022/10/15 03:11:01;;;;;;;37.40;19.40;;;10.60;99.90;;;;;;9196325;19;20320;-76
2022/10/15 03:14:05;;;;;;;36.85;18.20;;;10.70;99.90;;;;;;9195712;19;19986;-77
2022/10/15 03:17:08;;;;;;;38.78;19.40;;;10.30;99.90;;;;;;9194779;19;20245;-75
2022/10/15 03:20:15;;;;;;;43.20;18.88;;;11.40;99.90;;;;;;9195106;19;19922;-75
2022/10/15 03:23:19;;;;;;;41.90;19.38;;;10.60;99.90;;;;;;9195578;19;19915;-76
2022/10/15 03:26:23;;;;;;;38.28;18.00;;;11.20;99.90;;;;;;9194789;19;19978;-76
2022/10/15 03:29:27;;;;;;;35.28;17.63;;;11.60;99.90;;;;;;9195463;19;19926;-75
2022/10/15 03:32:31;;;;;;;36.55;18.83;;;11.00;99.90;;;;;;9194747;19;19974;-76
2022/10/15 03:35:37;;;;;;;40.95;19.77;;;11.40;99.90;;;;;;9194604;19;20245;-76
2022/10/15 03:38:41;;;;;;;38.78;19.20;;;10.60;99.90;;;;;;9194483;19;19929;-76
2022/10/15 03:41:45;;;;;;;35.65;18.00;;;11.20;99.90;;;;;;9194781;19;19921;-77
2022/10/15 03:44:49;;;;;;;37.75;17.13;;;;;;;;;;9194703;19;19948;-76
2022/10/15 03:47:54;;;;;;;40.63;18.77;;;10.50;99.90;;;;;;9196223;19;19918;-77
2022/10/15 03:51:00;;;;;;;39.28;18.58;;;11.30;99.90;;;;;;9194405;19;19914;-76
2022/10/15 03:54:04;;;;;;;38.58;18.27;;;10.60;99.90;;;;;;9193043;19;20337;-76
2022/10/15 03:57:08;;;;;;;33.78;17.52;;;10.30;99.90;;;;;;9191025;19;19921;-76
2022/10/15 04:00:15;;;;;;;38.88;17.92;;;11.50;99.90;;;;;;9193695;19;19915;-75
2022/10/15 04:03:19;;;;;;;37.33;17.70;;;10.70;99.90;;;;;;9194351;19;19911;-75
2022/10/15 04:06:25;;;;;;;39.85;17.42;;;11.10;99.90;;;;;;9193738;19;19919;-76
2022/10/15 04:09:29;;;;;;;33.72;16.73;;;10.50;99.90;;;;;;9194035;19;20337;-76
2022/10/15 04:12:33;;;;;;;35.10;17.90;;;11.50;99.90;;;;;;9193316;19;19945;-76
2022/10/15 04:15:40;;;;;;;37.08;18.65;;;10.80;99.90;;;;;;9195513;19;19910;-75
2022/10/15 04:18:44;;;;;;;34.22;17.30;;;11.60;99.90;;;;;;9191269;19;19927;-75
2022/10/15 04:21:53;;;;;;;;;;;11.20;99.90;;;;;;9195856;19;19993;-76
2022/10/15 04:24:56;;;;;;;31.20;16.50;;;10.80;99.90;;;;;;9192472;19;19918;-76
2022/10/15 04:28:00;;;;;;;35.70;15.63;;;10.90;99.90;;;;;;9193341;19;20649;-75
2022/10/15 04:31:04;;;;;;;35.03;16.67;;;11.30;99.90;;;;;;9192745;19;19970;-76
2022/10/15 04:34:08;;;;;;;33.03;16.45;;;10.70;99.90;;;;;;9193002;19;19986;-76
2022/10/15 04:37:15;;;;;;;32.58;15.93;;;11.20;99.90;;;;;;9191104;19;19915;-77
2022/10/15 04:40:19;;;;;;;34.00;16.48;;;11.20;99.90;;;;;;9192914;19;19911;-76
2022/10/15 04:43:23;;;;;;;34.90;15.18;;;11.10;99.90;;;;;;9192285;19;19910;-74
2022/10/15 04:46:27;;;;;;;37.92;16.58;;;10.90;99.90;;;;;;9193715;19;19929;-75
2022/10/15 04:49:32;;;;;;;34.97;17.08;;;11.20;99.90;;;;;;9192242;19;19957;-75
2022/10/15 04:52:39;;;;;;;35.80;16.70;;;11.30;99.90;;;;;;9192180;19;19982;-75
2022/10/15 04:55:43;;;;;;;34.97;14.27;;;10.80;99.90;;;;;;9189413;19;20352;-75
2022/10/15 04:58:49;;;;;;;34.35;17.15;;;11.50;99.90;;;;;;9192734;19;19966;-75
2022/10/15 05:01:53;;;;;;;37.35;17.00;;;;;;;;;;9192201;19;20308;-75
2022/10/15 05:04:57;;;;;;;39.85;17.77;;;11.30;99.90;;;;;;9191880;19;20269;-75
2022/10/15 05:08:05;;;;;;;36.92;16.15;;;10.60;99.90;;;;;;9192342;19;19948;-75
2022/10/15 05:11:11;;;;;;;36.25;16.30;;;10.50;99.90;;;;;;9191329;19;20002;-75
2022/10/15 05:14:15;;;;;;;36.80;17.23;;;11.30;99.90;;;;;;9191345;19;19935;-76
2022/10/15 05:17:19;;;;;;;36.05;16.17;;;10.30;99.90;;;;;;9194522;19;19951;-75
2022/10/15 05:20:22;;;;;;;36.85;17.33;;;10.70;99.90;;;;;;9191337;19;20266;-76
2022/10/15 05:23:29;;;;;;;36.15;16.85;;;11.20;99.90;;;;;;9190840;19;19948;-74
2022/10/15 05:26:33;;;;;;;33.35;15.70;;;10.50;99.90;;;;;;9190791;19;19918;-75
2022/10/15 05:29:38;;;;;;;38.33;18.85;;;10.90;99.90;;;;;;9194125;19;19918;-75
2022/10/15 05:32:42;;;;;;;36.30;15.88;;;11.20;99.90;;;;;;9199076;19;19925;-75
2022/10/15 05:35:46;;;;;;;35.88;15.70;;;11.30;99.90;;;;;;9198006;19;19919;-76
2022/10/15 05:38:54;;;;;;;35.53;16.80;;;10.50;99.90;;;;;;9199885;19;19926;-75
2022/10/15 05:41:58;;;;;;;34.28;15.75;;;11.30;99.90;;;;;;9198700;19;19926;-76
2022/10/15 05:45:02;;;;;;;38.35;16.77;;;11.30;99.90;;;;;;9199568;19;19918;-75
2022/10/15 05:48:07;;;;;;;44.22;17.83;;;10.60;99.90;;;;;;9198354;19;20383;-75
2022/10/15 05:51:14;;;;;;;37.58;16.58;;;10.60;99.90;;;;;;9198288;19;19922;-74
2022/10/15 05:54:21;;;;;;;34.03;17.85;;;11.10;99.90;;;;;;9196143;19;19966;-75
2022/10/15 05:57:25;;;;;;;40.17;17.30;;;;;;;;;;9195681;19;19966;-74
2022/10/15 06:00:28;;;;;;;37.80;17.80;;;11.20;99.90;;;;;;9197256;19;19922;-74
2022/10/15 06:03:33;;;;;;;40.53;16.65;;;;;;;;;;9198657;19;20386;-75
2022/10/15 06:06:37;;;;;;;34.25;15.38;;;10.50;99.90;;;;;;9198113;19;20026;-75
2022/10/15 06:09:43;;;;;;;38.50;16.83;;;10.80;99.90;;;;;;9198028;19;19983;-75
2022/10/15 06:12:51;;;;;;;33.17;16.00;;;10.90;99.90;;;;;;9197447;19;19915;-75
2022/10/15 06:15:55;;;;;;;34.90;17.17;;;10.70;99.90;;;;;;9198152;19;20230;-76
2022/10/15 06:18:59;;;;;;;39.65;18.67;;;11.40;99.90;;;;;;9197395;19;20122;-75
2022/10/15 06:22:03;;;;;;;39.03;18.42;;;11.00;99.90;;;;;;9197600;19;20261;-75
2022/10/15 06:25:11;;;;;;;40.33;17.45;;;11.10;99.90;;;;;;9196547;19;19919;-75
2022/10/15 06:28:15;;;;;;;34.65;18.08;;;11.20;99.90;;;;;;9197124;19;20371;-75
2022/10/15 06:31:19;;;;;;;36.10;17.58;;;10.80;99.90;;;;;;9197590;19;19986;-75
2022/10/15 06:34:23;;;;;;;35.03;17.17;;;;;;;;;;9196752;19;19986;-76
2022/10/15 06:37:27;;;;;;;42.25;19.20;;;10.60;99.90;;;;;;9194906;19;19906;-76
2022/10/15 06:40:34;;;;;;;34.13;17.65;;;11.30;99.90;;;;;;9195722;19;19929;-75
2022/10/15 06:43:38;;;;;;;35.75;19.02;;;11.30;99.90;;;;;;9197732;19;19926;-75
2022/10/15 06:46:42;;;;;;;38.67;18.45;;;11.30;99.90;;;;;;9197072;19;19911;-75
2022/10/15 06:49:46;;;;;;;38.17;17.85;;;;;;;;;;9196557;19;19966;-76
2022/10/15 06:52:50;;;;;;;37.33;17.55;;;11.20;99.90;;;;;;9195770;19;19919;-76
2022/10/15 06:55:58;;;;;;;35.80;17.45;;;10.70;99.90;;;;;;9195355;19;19918;-76
2022/10/15 06:59:02;;;;;;;37.38;17.20;;;;;;;;;;9196041;19;19919;-75
2022/10/15 07:02:06;;;;;;;37.63;17.13;;;11.50;99.90;;;;;;9195975;19;19911;-75
2022/10/15 07:05:11;;;;;;;37.88;18.25;;;11.50;99.90;;;;;;9196029;19;19926;-76
2022/10/15 07:08:15;;;;;;;39.45;19.05;;;;;;;;;;9196483;19;19921;-77
2022/10/15 07:11:22;;;;;;;36.78;17.65;;;11.10;99.90;;;;;;9196189;19;19950;-76
2022/10/15 07:14:28;;;;;;;37.42;16.95;;;10.70;99.90;;;;;;9197580;19;19914;-76
2022/10/15 07:17:34;;;;;;;37.10;17.95;;;;;;;;;;9192815;19;19915;-75
2022/10/15 07:20:38;;;;;;;35.33;17.15;;;11.10;99.90;;;;;;9195609;19;19911;-75
2022/10/15 07:23:41;;;;;;;37.22;18.92;;;11.50;99.90;;;;;;9195096;19;20337;-75
2022/10/15 07:26:49;;;;;;;33.17;17.00;;;11.30;99.90;;;;;;9194922;19;19915;-75
2022/10/15 07:29:53;;;;;;;43.70;18.13;;;10.80;99.90;;;;;;9195569;19;19919;-76
2022/10/15 07:32:58;;;;;;;36.08;17.83;;;10.90;99.90;;;;;;9195573;19;20278;-76
2022/10/15 07:36:05;;;;;;;35.22;16.98;;;11.50;99.90;;;;;;9194961;19;19914;-76
2022/10/15 07:39:10;;;;;;;39.97;19.88;;;11.50;99.90;;;;;;9195572;19;19921;-77
2022/10/15 07:42:17;;;;;;;41.75;17.42;;;12.00;99.90;;;;;;9194544;19;19922;-76
2022/10/15 07:45:21;;;;;;;39.35;17.90;;;12.30;99.90;;;;;;9194998;19;19918;-76
2022/10/15 07:48:24;;;;;;;35.95;18.15;;;11.10;99.90;;;;;;9195101;19;19907;-76
2022/10/15 07:51:28;;;;;;;43.42;17.83;;;11.50;99.90;;;;;;9194144;19;19910;-76
2022/10/15 07:54:34;;;;;;;35.22;17.65;;;11.90;99.90;;;;;;9193035;19;19918;-75
2022/10/15 07:57:41;;;;;;;39.75;17.88;;;11.60;99.90;;;;;;9192405;19;19975;-75
2022/10/15 08:00:45;;;;;;;34.85;16.23;;;;;;;;;;9194616;19;19915;-75
2022/10/15 08:03:50;;;;;;;38.90;17.48;;;;;;;;;;9191884;19;20421;-75
2022/10/15 08:06:54;;;;;;;33.95;16.85;;;11.40;99.90;;;;;;9194019;19;20004;-75
2022/10/15 08:09:57;;;;;;;37.63;16.20;;;12.40;99.90;;;;;;9193422;19;20015;-75
2022/10/15 08:13:04;;;;;;;34.85;16.42;;;11.40;99.90;;;;;;9196087;19;19953;-76
2022/10/15 08:16:09;;;;;;;32.75;15.85;;;12.20;99.90;;;;;;9192531;19;19957;-76
2022/10/15 08:19:16;;;;;;;36.50;17.40;;;12.00;99.90;;;;;;9193690;19;20353;-76
2022/10/15 08:22:20;;;;;;;33.08;15.63;;;12.80;99.90;;;;;;9193212;19;20355;-75
2022/10/15 08:25:24;;;;;;;34.95;17.13;;;12.30;99.90;;;;;;9192827;19;19929;-78
2022/10/15 08:28:32;;;;;;;34.35;16.83;;;12.00;99.90;;;;;;9192515;19;20424;-75
2022/10/15 08:31:36;;;;;;;31.05;15.63;;;12.50;99.90;;;;;;9192565;19;19929;-75
2022/10/15 08:34:40;;;;;;;31.50;15.55;;;12.50;99.90;;;;;;9192322;19;19918;-76
2022/10/15 08:37:44;;;;;;;30.45;14.63;;;13.30;99.90;;;;;;9191618;19;19915;-75
2022/10/15 08:40:50;;;;;;;32.05;17.00;;;12.10;99.90;;;;;;9192587;19;20280;-75
2022/10/15 08:43:56;;;;;;;34.55;17.48;;;12.60;99.90;;;;;;9195254;19;19948;-75
2022/10/15 08:47:07;;;;;;;33.22;16.95;;;12.60;99.90;;;;;;9191886;19;19919;-75
2022/10/15 08:50:21;;;;;;;32.72;16.58;;;12.40;99.90;;;;;;9193099;19;19953;-75
2022/10/15 08:53:26;;;;;;;28.00;14.07;;;13.50;99.90;;;;;;9191568;19;19947;-75
2022/10/15 08:56:35;;;;;;;31.17;15.75;;;13.00;99.90;;;;;;9192069;19;19933;-74
2022/10/15 08:59:49;;;;;;;32.00;15.90;;;12.20;99.90;;;;;;9191693;19;19926;-75
2022/10/15 09:03:01;;;;;;;31.73;15.60;;;12.80;99.90;;;;;;9191874;19;19977;-75
2022/10/15 09:06:14;;;;;;;27.38;14.77;;;13.10;99.90;;;;;;9190264;19;19974;-75
2022/10/15 09:09:29;;;;;;;25.90;14.20;;;13.10;99.90;;;;;;9191701;19;20333;-76
2022/10/15 09:12:42;;;;;;;29.40;14.90;;;12.70;99.90;;;;;;9195059;19;19918;-76
2022/10/15 09:15:56;;;;;;;30.45;16.85;;;13.70;99.90;;;;;;9194739;19;20349;-76
2022/10/15 09:19:04;;;;;;;29.90;17.02;;;12.90;99.90;;;;;;9188959;19;20322;-75
2022/10/15 09:22:13;;;;;;;31.08;15.88;;;13.00;99.90;;;;;;9191446;19;19922;-76
2022/10/15 09:25:19;;;;;;;32.30;16.23;;;12.70;99.90;;;;;;9190398;19;19919;-76
2022/10/15 09:28:27;;;;;;;29.70;17.10;;;13.70;99.90;;;;;;9191218;19;19915;-76
2022/10/15 09:31:38;;;;;;;28.63;15.73;;;13.70;99.90;;;;;;9190673;19;19911;-76
2022/10/15 09:34:46;;;;;;;29.10;15.57;;;13.00;99.90;;;;;;9191169;19;19910;-76
2022/10/15 09:37:54;;;;;;;30.42;15.88;;;13.70;99.90;;;;;;9189181;19;19928;-76
2022/10/15 09:41:15;;;;;;;28.85;16.67;;;13.30;99.90;;;;;;9190614;19;20233;-76
2022/10/15 09:44:19;;;;;;;29.65;17.00;;;13.00;99.90;;;;;;9190181;19;19911;-75
2022/10/15 09:47:30;;;;;;;27.30;15.35;;;13.50;99.90;;;;;;9190247;19;20435;-76
2022/10/15 09:50:44;;;;;;;31.30;18.23;;;14.00;99.90;;;;;;9189795;19;19915;-76
2022/10/15 09:53:53;;;;;;;31.95;19.52;;;13.30;99.90;;;;;;9188582;19;19919;-75
2022/10/15 09:56:59;;;;;;;32.95;18.58;;;13.70;99.90;;;;;;9189185;19;19948;-76
2022/10/15 10:00:06;;;;;;;31.63;17.55;;;14.10;99.90;;;;;;9189168;19;19922;-75
2022/10/15 10:03:17;;;;;;;34.15;19.23;;;13.90;99.90;;;;;;9189361;19;19923;-75
2022/10/15 10:06:22;;;;;;;32.72;18.90;;;13.90;99.90;;;;;;9188857;19;19926;-75
2022/10/15 10:09:29;;;;;;;31.20;17.05;;;13.40;99.90;;;;;;9188861;19;19919;-75
2022/10/15 10:12:35;;;;;;;33.10;17.23;;;13.90;99.90;;;;;;9194724;19;19961;-76
2022/10/15 10:15:43;;;;;;;33.70;17.67;;;14.20;99.90;;;;;;9189120;19;19952;-76
2022/10/15 10:19:08;;;;;;;31.00;17.70;;;13.40;99.90;;;;;;9195243;19;19950;-75
2022/10/15 10:22:17;;;;;;;24.60;14.13;;;13.60;99.90;;;;;;9198804;19;19990;-75
2022/10/15 10:25:41;;;;;;;28.30;14.25;;;14.10;99.90;;;;;;9196319;19;20333;-75
2022/10/15 10:28:51;;;;;;;23.88;13.02;;;13.30;99.90;;;;;;9197153;19;19982;-75
2022/10/15 10:31:56;;;;;;;24.17;14.45;;;;;;;;;;9197020;19;19919;-75
2022/10/15 10:35:04;;;;;;;28.25;14.73;;;12.90;99.90;;;;;;9196441;19;19984;-75
2022/10/15 10:38:08;;;;;;;26.92;15.25;;;14.00;99.90;;;;;;9195036;19;19921;-74
2022/10/15 10:41:13;;;;;;;22.92;13.00;;;13.20;99.90;;;;;;9199698;19;19925;-75
2022/10/15 10:44:24;;;;;;;29.73;14.68;;;13.40;99.90;;;;;;9196353;19;19914;-75
2022/10/15 10:47:28;;;;;;;26.23;12.65;;;12.70;99.90;;;;;;9197088;19;19926;-75
2022/10/15 10:50:39;;;;;;;27.05;13.95;;;12.90;99.90;;;;;;9195904;19;19915;-76
2022/10/15 10:53:51;;;;;;;25.08;13.40;;;12.60;99.90;;;;;;9195297;19;19974;-75
2022/10/15 10:56:57;;;;;;;21.65;11.90;;;12.40;99.90;;;;;;9195716;19;19922;-75
2022/10/15 11:00:04;;;;;;;26.10;13.50;;;13.10;99.90;;;;;;9196051;19;19926;-76
2022/10/15 11:03:14;;;;;;;23.05;11.07;;;13.00;99.90;;;;;;9195530;19;20329;-74
2022/10/15 11:06:32;;;;;;;21.85;11.93;;;13.60;99.90;;;;;;9195945;19;19922;-75
2022/10/15 11:09:57;;;;;;;21.92;11.52;;;13.20;99.90;;;;;;9196597;19;20345;-76
2022/10/15 11:13:13;;;;;;;22.98;11.55;;;13.80;99.90;;;;;;9195841;19;20352;-75
2022/10/15 11:16:23;;;;;;;23.23;11.82;;;13.00;99.90;;;;;;9192996;19;19918;-75
2022/10/15 11:19:34;;;;;;;29.95;15.90;;;13.20;99.90;;;;;;9193534;19;19945;-75
2022/10/15 11:22:52;;;;;;;29.30;13.55;;;13.20;99.90;;;;;;9193334;19;19919;-75
2022/10/15 11:26:07;;;;;;;26.52;14.45;;;13.50;99.90;;;;;;9194027;19;20307;-74
2022/10/15 11:29:17;;;;;;;28.55;13.88;;;13.70;99.90;;;;;;9194227;19;20014;-75
2022/10/15 11:32:40;;;;;;;27.58;13.48;;;13.20;99.90;;;;;;9194812;19;19974;-74
2022/10/15 11:35:50;;;;;;;24.00;12.77;;;13.70;99.90;;;;;;9194849;19;19910;-75
2022/10/15 11:39:05;;;;;;;23.77;12.35;;;14.40;99.90;;;;;;9194216;19;19922;-74
2022/10/15 11:42:18;;;;;;;19.40;10.88;;;14.30;99.90;;;;;;9194173;19;19918;-74
2022/10/15 11:45:50;;;;;;;16.33;9.95;;;13.90;99.90;;;;;;9194261;19;19915;-74
2022/10/15 11:49:07;;;;;;;16.40;9.38;;;13.80;99.90;;;;;;9194073;19;20336;-74
2022/10/15 11:52:26;;;;;;;16.83;10.20;;;14.00;99.90;;;;;;9194540;19;19911;-74
2022/10/15 11:55:42;;;;;;;18.98;10.32;;;14.40;99.90;;;;;;9191945;19;20324;-75
2022/10/15 11:58:51;;;;;;;17.27;9.13;;;14.00;99.90;;;;;;9192594;19;19921;-74
2022/10/15 12:02:01;;;;;;;13.95;8.45;;;13.30;99.90;;;;;;9193922;19;19996;-74
2022/10/15 12:05:10;;;;;;;13.88;7.95;;;13.40;99.90;;;;;;9194332;19;19918;-74
2022/10/15 12:08:15;;;;;;;17.23;9.48;;;14.20;99.90;;;;;;9194391;19;19915;-74
2022/10/15 12:11:36;;;;;;;14.38;8.23;;;14.20;99.90;;;;;;9193436;19;19917;-74
2022/10/15 12:14:45;;;;;;;14.48;8.50;;;14.20;99.90;;;;;;9193320;19;19926;-75
2022/10/15 12:17:53;;;;;;;13.93;8.05;;;14.70;99.90;;;;;;9191027;19;20261;-74
2022/10/15 12:20:58;;;;;;;13.70;8.60;;;;;;;;;;9193491;19;19986;-74
2022/10/15 12:24:02;;;;;;;12.68;8.32;;;14.90;99.90;;;;;;9192683;19;20379;-75
2022/10/15 12:27:28;;;;;;;13.02;7.35;;;14.20;99.90;;;;;;9192650;19;20003;-75
2022/10/15 12:30:35;;;;;;;12.07;7.57;;;14.60;99.90;;;;;;9193332;19;19933;-75
2022/10/15 12:33:47;;;;;;;10.93;7.25;;;14.00;99.90;;;;;;9192964;19;20404;-74
2022/10/15 12:37:02;;;;;;;9.75;5.65;;;13.90;99.90;;;;;;9192865;19;19953;-73
2022/10/15 12:40:20;;;;;;;10.80;7.20;;;14.40;99.90;;;;;;9187567;19;19919;-73
2022/10/15 12:43:27;;;;;;;11.85;7.43;;;13.90;99.90;;;;;;9192417;19;19970;-74
2022/10/15 12:46:39;;;;;;;10.57;6.38;;;14.00;99.90;;;;;;9192434;19;19922;-74
2022/10/15 12:50:02;;;;;;;24.42;16.60;;;14.20;99.90;;;;;;9193122;19;19919;-75
2022/10/15 12:53:07;;;;;;;12.27;7.30;;;15.50;99.90;;;;;;9191717;19;19942;-75
2022/10/15 12:56:23;;;;;;;14.02;7.43;;;14.10;99.90;;;;;;9191227;19;20584;-75
2022/10/15 12:59:59;;;;;;;10.15;7.63;;;14.10;99.90;;;;;;9190224;19;19923;-75
2022/10/15 13:03:24;;;;;;;11.82;7.18;;;14.70;99.90;;;;;;9190066;19;20301;-75
2022/10/15 13:06:34;;;;;;;10.13;5.82;;;14.90;99.90;;;;;;9191741;19;19982;-77
2022/10/15 13:09:38;;;;;;;11.55;6.47;;;14.20;99.90;;;;;;9192785;19;19919;-76
2022/10/15 13:12:42;;;;;;;11.65;5.93;;;15.10;99.90;;;;;;9191321;19;19914;-75
2022/10/15 13:15:55;;;;;;;11.18;6.40;;;15.10;99.90;;;;;;9190263;19;19970;-75
2022/10/15 13:18:59;;;;;;;11.10;6.72;;;;;;;;;;9190509;19;19911;-74
2022/10/15 13:22:05;;;;;;;14.93;6.85;;;15.00;99.90;;;;;;9190553;19;19922;-75
2022/10/15 13:25:17;;;;;;;11.93;7.00;;;13.90;99.90;;;;;;9189253;19;19915;-75
2022/10/15 13:28:36;;;;;;;13.68;7.60;;;14.50;99.90;;;;;;9190697;19;19959;-75
2022/10/15 13:31:43;;;;;;;10.38;7.75;;;14.70;99.90;;;;;;9191505;19;19932;-76
2022/10/15 13:34:48;;;;;;;11.55;7.40;;;;;;;;;;9190354;19;19934;-75
2022/10/15 13:37:52;;;;;;;15.32;8.95;;;14.20;99.90;;;;;;9190413;19;19922;-75
2022/10/15 13:40:56;;;;;;;16.17;8.45;;;14.10;99.90;;;;;;9189903;19;20448;-75
2022/10/15 13:44:01;;;;;;;14.88;8.70;;;13.70;99.90;;;;;;9190313;19;20297;-75
2022/10/15 13:47:24;;;;;;;15.48;9.18;;;13.90;99.90;;;;;;9190465;19;19910;-75
2022/10/15 13:50:31;;;;;;;15.50;9.60;;;13.70;99.90;;;;;;9193016;19;19917;-75
2022/10/15 13:53:38;;;;;;;16.55;10.20;;;13.60;99.90;;;;;;9196999;19;19919;-75
2022/10/15 13:56:45;;;;;;;17.60;9.65;;;13.80;99.90;;;;;;9198019;19;19943;-75
2022/10/15 13:59:49;;;;;;;16.98;10.30;;;13.90;99.90;;;;;;9194910;19;20361;-75
2022/10/15 14:03:16;;;;;;;20.05;11.02;;;14.10;99.90;;;;;;9197752;19;19946;-75
2022/10/15 14:06:23;;;;;;;21.00;12.18;;;14.10;99.90;;;;;;9199277;19;19919;-75
2022/10/15 14:09:29;;;;;;;;;;;14.20;99.90;;;;;;9199803;19;19921;-76
2022/10/15 14:12:33;;;;;;;18.27;10.95;;;13.30;99.90;;;;;;9197647;19;19921;-76
2022/10/15 14:15:46;;;;;;;15.50;9.65;;;14.30;99.90;;;;;;9196991;19;19918;-75
2022/10/15 14:18:54;;;;;;;17.13;10.07;;;13.50;99.90;;;;;;9196043;19;19928;-77
2022/10/15 14:21:59;;;;;;;19.83;10.13;;;13.90;99.90;;;;;;9197517;19;20859;-75
2022/10/15 14:25:11;;;;;;;16.25;9.82;;;14.00;99.90;;;;;;9196513;19;20420;-75
2022/10/15 14:28:22;;;;;;;18.02;11.68;;;14.10;99.90;;;;;;9197274;19;19949;-77
2022/10/15 14:31:40;;;;;;;16.13;9.98;;;14.80;99.90;;;;;;9196696;19;19948;-75
2022/10/15 14:34:46;;;;;;;17.48;11.30;;;13.80;99.90;;;;;;9196973;19;19982;-75
2022/10/15 14:38:01;;;;;;;19.38;11.63;;;14.10;99.90;;;;;;9198508;19;19918;-75
2022/10/15 14:41:08;;;;;;;17.27;10.80;;;13.40;99.90;;;;;;9197001;19;19923;-75
2022/10/15 14:44:21;;;;;;;20.17;11.63;;;13.50;99.90;;;;;;9196809;19;19930;-75
2022/10/15 14:47:28;;;;;;;15.95;10.30;;;13.70;99.90;;;;;;9196299;19;19915;-74
2022/10/15 14:50:37;;;;;;;18.73;11.63;;;13.40;99.90;;;;;;9196716;19;20263;-74
2022/10/15 14:53:47;;;;;;;40.83;21.70;;;14.20;99.90;;;;;;9195467;19;19979;-74
2022/10/15 14:56:53;;;;;;;14.77;9.73;;;14.10;99.90;;;;;;9196377;19;19915;-74
2022/10/15 14:59:58;;;;;;;15.95;9.30;;;13.70;99.90;;;;;;9193857;19;20329;-74
2022/10/15 15:03:05;;;;;;;18.08;11.13;;;14.10;99.90;;;;;;9194494;19;19996;-75
2022/10/15 15:06:12;;;;;;;16.13;10.10;;;14.00;99.90;;;;;;9195724;19;19987;-75
2022/10/15 15:09:16;;;;;;;13.80;9.32;;;13.80;99.90;;;;;;9197424;19;19926;-75
2022/10/15 15:12:24;;;;;;;16.30;10.27;;;14.10;99.90;;;;;;9195607;19;19922;-75
2022/10/15 15:15:28;;;;;;;14.43;9.52;;;13.90;99.90;;;;;;9195014;19;19927;-75
2022/10/15 15:18:32;;;;;;;13.18;9.32;;;13.80;99.90;;;;;;9194829;19;19996;-75
2022/10/15 15:21:38;;;;;;;14.18;9.57;;;14.80;99.90;;;;;;9195481;19;19928;-76
2022/10/15 15:24:43;;;;;;;13.05;8.75;;;;;;;;;;9195237;19;20260;-75
2022/10/15 15:27:47;;;;;;;11.18;8.57;;;15.10;99.90;;;;;;9195625;19;19914;-75
2022/10/15 15:30:58;;;;;;;9.65;7.22;;;14.40;99.90;;;;;;9195346;19;19910;-75
2022/10/15 15:34:02;;;;;;;9.38;6.78;;;13.90;99.90;;;;;;9195095;19;19915;-76
2022/10/15 15:37:15;;;;;;;9.35;6.50;;;14.00;99.90;;;;;;9198311;19;19923;-75
2022/10/15 15:40:19;;;;;;;8.32;5.57;;;14.90;99.90;;;;;;9193374;19;19953;-73
2022/10/15 15:43:22;;;;;;;7.30;5.10;;;15.30;99.90;;;;;;9195176;19;19914;-74
2022/10/15 15:46:26;;;;;;;6.90;5.18;;;14.60;99.90;;;;;;9194282;19;19981;-74
2022/10/15 15:49:30;;;;;;;7.05;4.57;;;14.90;99.90;;;;;;9193514;19;19981;-74
2022/10/15 15:52:37;;;;;;;6.00;4.45;;;14.70;99.90;;;;;;9193933;19;19914;-74
2022/10/15 15:55:41;;;;;;;5.90;3.47;;;14.40;99.90;;;;;;9191189;19;19922;-74
2022/10/15 15:58:45;;;;;;;5.00;3.38;;;14.50;99.90;;;;;;9193157;19;19926;-75
2022/10/15 16:01:49;;;;;;;9.50;4.65;;;14.70;99.90;;;;;;9193926;19;19942;-74
2022/10/15 16:04:53;;;;;;;4.57;3.13;;;13.90;99.90;;;;;;9193068;19;19911;-74